Platitera Tonouranon — SX7180 — position and weather

sailwx.info

Track history (hours):
 
Tides and Currents Weather Stations Pressure Air Temp Water Temp Dewpoint Dewpoint Depression Visibility Wind Speed Wind Dir Waves Ship Positions

Platitera Tonouranon

Last reported at 2017-Mar-23 07:33 UTC. Time now 2017-Mar-23 12:34 UTC.
Position N 37°42' E 023°34'.

Length 55 m; draft 3.8 m.

Type: Ship (hazmat cat A). MMSI: 237038200.

Date/timePositionNaut miles runAvg speedWind from/ knotsBaromVisibWave heightAir tempDewpointWater temp
2017-Mar-23 07:33N 37°42' E 023°34'1211.9
2017-Mar-23 06:33N 37°54' E 023°39'3 0.5
2017-Mar-23 00:19N 37°56' E 023°41'0 0.0
2017-Mar-22 21:16N 37°56' E 023°41'0 0.0
2017-Mar-22 20:20N 37°56' E 023°41'0 0.0
2017-Mar-22 18:28N 37°56' E 023°41'0 0.0
2017-Mar-22 17:29N 37°56' E 023°41'1211.2
2017-Mar-22 16:24N 37°49' E 023°29'7 0.8
2017-Mar-22 07:20N 37°43' E 023°35'911.7
2017-Mar-22 06:33N 37°52' E 023°39'3 0.2
2017-Mar-21 17:34N 37°55' E 023°39'12 1.2
2017-Mar-21 07:25N 37°43' E 023°35'1011.8
2017-Mar-21 06:34N 37°53' E 023°39'2 0.2
2017-Mar-20 17:33N 37°55' E 023°39'1312.0
2017-Mar-20 16:31N 37°47' E 023°27'3 2.9
2017-Mar-20 15:33N 37°45' E 023°26'0 0.0
2017-Mar-20 14:31N 37°45' E 023°26'8 7.8
2017-Mar-20 13:33N 37°37' E 023°25'11 1.9
2017-Mar-20 07:29N 37°46' E 023°34'9 9.8
2017-Mar-20 06:33N 37°54' E 023°40'2 0.1
2017-Mar-19 17:32N 37°56' E 023°41'1211.7
2017-Mar-19 16:29N 37°48' E 023°29'4 4.7
2017-Mar-19 15:34N 37°45' E 023°26'0 0.0
2017-Mar-19 14:33N 37°45' E 023°26'6 6.3
2017-Mar-19 13:33N 37°38' E 023°25'9 1.4
2017-Mar-19 07:33N 37°44' E 023°34'1110.5
2017-Mar-19 06:33N 37°54' E 023°37'3 0.3
2017-Mar-18 17:28N 37°56' E 023°41'1511.9
2017-Mar-18 16:14N 37°47' E 023°26'8 0.9
2017-Mar-18 07:14N 37°45' E 023°36'811.8
2017-Mar-18 06:33N 37°53' E 023°39'3 0.3
2017-Mar-17 17:31N 37°56' E 023°41'1311.5
2017-Mar-17 16:24N 37°48' E 023°28'10 1.0
2017-Mar-17 06:33N 37°53' E 023°39'3 0.3
2017-Mar-16 17:23N 37°56' E 023°40'1312.5
2017-Mar-16 16:21N 37°48' E 023°27'3 1.7
2017-Mar-16 14:31N 37°45' E 023°26'7 1.0
2017-Mar-16 07:15N 37°43' E 023°35'811.5
2017-Mar-16 06:33N 37°51' E 023°37'6 0.4
2017-Mar-15 17:22N 37°56' E 023°41'911.8
2017-Mar-15 16:33N 37°50' E 023°31'7 6.6
2017-Mar-15 15:28N 37°45' E 023°26'0 0.0
2017-Mar-15 14:32N 37°45' E 023°26'9 1.3
2017-Mar-15 07:33N 37°42' E 023°36'1211.8
2017-Mar-15 06:33N 37°54' E 023°40'3 0.2
2017-Mar-14 18:24N 37°56' E 023°41'0 0.1
2017-Mar-14 17:30N 37°56' E 023°41'1211.3
2017-Mar-14 16:26N 37°49' E 023°29'7 0.8
2017-Mar-14 07:29N 37°43' E 023°34'1111.7
2017-Mar-14 06:33N 37°53' E 023°39'3 0.3
2017-Mar-13 17:33N 37°56' E 023°41'1211.4
2017-Mar-13 16:27N 37°48' E 023°29'10 3.3
2017-Mar-13 13:30N 37°39' E 023°25'  
Track history (hours):
 
Tides and Currents Weather Stations Pressure Air Temp Water Temp Dewpoint Dewpoint Depression Visibility Wind Speed Wind Dir Waves Ship Positions

Platitera Tonouranon

Last reported at 2017-Mar-23 07:33 UTC. Time now 2017-Mar-23 12:34 UTC.
Position N 37°42' E 023°34'.

Length 55 m; draft 3.8 m.

Type: Ship (hazmat cat A). MMSI: 237038200.

Date/timePositionNaut miles runAvg speedWind from/ knotsBaromVisibWave heightAir tempDewpointWater temp
2017-Mar-23 07:33N 37°42' E 023°34'1211.9
2017-Mar-23 06:33N 37°54' E 023°39'3 0.5
2017-Mar-23 00:19N 37°56' E 023°41'0 0.0
2017-Mar-22 21:16N 37°56' E 023°41'0 0.0
2017-Mar-22 20:20N 37°56' E 023°41'0 0.0
2017-Mar-22 18:28N 37°56' E 023°41'0 0.0
2017-Mar-22 17:29N 37°56' E 023°41'1211.2
2017-Mar-22 16:24N 37°49' E 023°29'7 0.8
2017-Mar-22 07:20N 37°43' E 023°35'911.7
2017-Mar-22 06:33N 37°52' E 023°39'3 0.2
2017-Mar-21 17:34N 37°55' E 023°39'12 1.2
2017-Mar-21 07:25N 37°43' E 023°35'1011.8
2017-Mar-21 06:34N 37°53' E 023°39'2 0.2
2017-Mar-20 17:33N 37°55' E 023°39'1312.0
2017-Mar-20 16:31N 37°47' E 023°27'3 2.9
2017-Mar-20 15:33N 37°45' E 023°26'0 0.0
2017-Mar-20 14:31N 37°45' E 023°26'8 7.8
2017-Mar-20 13:33N 37°37' E 023°25'11 1.9
2017-Mar-20 07:29N 37°46' E 023°34'9 9.8
2017-Mar-20 06:33N 37°54' E 023°40'2 0.1
2017-Mar-19 17:32N 37°56' E 023°41'1211.7
2017-Mar-19 16:29N 37°48' E 023°29'4 4.7
2017-Mar-19 15:34N 37°45' E 023°26'0 0.0
2017-Mar-19 14:33N 37°45' E 023°26'6 6.3
2017-Mar-19 13:33N 37°38' E 023°25'9 1.4
2017-Mar-19 07:33N 37°44' E 023°34'1110.5
2017-Mar-19 06:33N 37°54' E 023°37'3 0.3
2017-Mar-18 17:28N 37°56' E 023°41'1511.9
2017-Mar-18 16:14N 37°47' E 023°26'8 0.9
2017-Mar-18 07:14N 37°45' E 023°36'811.8
2017-Mar-18 06:33N 37°53' E 023°39'3 0.3
2017-Mar-17 17:31N 37°56' E 023°41'1311.5
2017-Mar-17 16:24N 37°48' E 023°28'10 1.0
2017-Mar-17 06:33N 37°53' E 023°39'3 0.3
2017-Mar-16 17:23N 37°56' E 023°40'1312.5
2017-Mar-16 16:21N 37°48' E 023°27'3 1.7
2017-Mar-16 14:31N 37°45' E 023°26'7 1.0
2017-Mar-16 07:15N 37°43' E 023°35'811.5
2017-Mar-16 06:33N 37°51' E 023°37'6 0.4
2017-Mar-15 17:22N 37°56' E 023°41'911.8
2017-Mar-15 16:33N 37°50' E 023°31'7 6.6
2017-Mar-15 15:28N 37°45' E 023°26'0 0.0
2017-Mar-15 14:32N 37°45' E 023°26'9 1.3
2017-Mar-15 07:33N 37°42' E 023°36'1211.8
2017-Mar-15 06:33N 37°54' E 023°40'3 0.2
2017-Mar-14 18:24N 37°56' E 023°41'0 0.1
2017-Mar-14 17:30N 37°56' E 023°41'1211.3
2017-Mar-14 16:26N 37°49' E 023°29'7 0.8
2017-Mar-14 07:29N 37°43' E 023°34'1111.7
2017-Mar-14 06:33N 37°53' E 023°39'3 0.3
2017-Mar-13 17:33N 37°56' E 023°41'1211.4
2017-Mar-13 16:27N 37°48' E 023°29'10 3.3
2017-Mar-13 13:30N 37°39' E 023°25'  

Dump ship's entire track history